sensor_id;sensor_type;location;lat;lon;timestamp;pressure;altitude;pressure_sealevel;temperature;humidity
39999;BME280;25696;42.646;23.368;2022-08-03T00:02:20;94524.63;;;21.03;59.60
39999;BME280;25696;42.646;23.368;2022-08-03T00:04:46;94532.06;;;21.17;59.16
39999;BME280;25696;42.646;23.368;2022-08-03T00:07:11;94530.25;;;20.71;58.85
39999;BME280;25696;42.646;23.368;2022-08-03T00:09:37;94538.41;;;20.66;59.08
39999;BME280;25696;42.646;23.368;2022-08-03T00:12:02;94532.13;;;20.65;59.24
39999;BME280;25696;42.646;23.368;2022-08-03T00:14:28;94528.66;;;20.85;59.08
39999;BME280;25696;42.646;23.368;2022-08-03T00:16:53;94531.94;;;20.87;59.05
39999;BME280;25696;42.646;23.368;2022-08-03T00:19:19;94524.63;;;21.03;58.38
39999;BME280;25696;42.646;23.368;2022-08-03T00:21:44;94527.41;;;21.18;58.70
39999;BME280;25696;42.646;23.368;2022-08-03T00:24:10;94527.19;;;21.29;57.71
39999;BME280;25696;42.646;23.368;2022-08-03T00:26:36;94526.44;;;20.82;58.63
39999;BME280;25696;42.646;23.368;2022-08-03T00:29:02;94528.06;;;20.78;58.94
39999;BME280;25696;42.646;23.368;2022-08-03T00:31:27;94532.19;;;20.80;58.92
39999;BME280;25696;42.646;23.368;2022-08-03T00:33:53;94532.63;;;20.57;59.40
39999;BME280;25696;42.646;23.368;2022-08-03T00:36:18;94534.84;;;20.19;60.84
39999;BME280;25696;42.646;23.368;2022-08-03T00:38:44;94533.84;;;19.88;61.43
39999;BME280;25696;42.646;23.368;2022-08-03T00:41:09;94528.28;;;19.78;61.98
39999;BME280;25696;42.646;23.368;2022-08-03T00:43:35;94527.53;;;19.87;61.94
39999;BME280;25696;42.646;23.368;2022-08-03T00:46:00;94525.38;;;19.94;61.51
39999;BME280;25696;42.646;23.368;2022-08-03T00:48:25;94526.03;;;20.07;61.13
39999;BME280;25696;42.646;23.368;2022-08-03T00:50:52;94528.84;;;20.17;61.05
39999;BME280;25696;42.646;23.368;2022-08-03T00:53:18;94526.47;;;19.93;61.05
39999;BME280;25696;42.646;23.368;2022-08-03T00:55:43;94524.59;;;19.99;60.60
39999;BME280;25696;42.646;23.368;2022-08-03T00:58:09;94530.38;;;20.02;60.67
39999;BME280;25696;42.646;23.368;2022-08-03T01:00:37;94532.84;;;20.04;60.64
39999;BME280;25696;42.646;23.368;2022-08-03T01:03:07;94524.00;;;20.29;60.75
39999;BME280;25696;42.646;23.368;2022-08-03T01:05:59;94520.75;;;20.32;60.10
39999;BME280;25696;42.646;23.368;2022-08-03T01:11:57;94514.22;;;20.01;60.28
39999;BME280;25696;42.646;23.368;2022-08-03T01:14:08;94517.00;;;20.06;60.21
39999;BME280;25696;42.646;23.368;2022-08-03T01:16:56;94516.59;;;19.87;61.01
39999;BME280;25696;42.646;23.368;2022-08-03T01:19:59;94506.72;;;19.81;60.92
39999;BME280;25696;42.646;23.368;2022-08-03T01:32:00;94509.97;;;19.20;63.88
39999;BME280;25696;42.646;23.368;2022-08-03T01:34:33;94513.84;;;19.24;63.87
39999;BME280;25696;42.646;23.368;2022-08-03T01:37:02;94507.56;;;19.50;63.02
39999;BME280;25696;42.646;23.368;2022-08-03T01:39:30;94513.53;;;19.79;63.39
39999;BME280;25696;42.646;23.368;2022-08-03T01:42:03;94513.88;;;19.87;62.29
39999;BME280;25696;42.646;23.368;2022-08-03T01:44:36;94519.81;;;19.79;62.11
39999;BME280;25696;42.646;23.368;2022-08-03T01:47:03;94520.22;;;19.61;62.35
39999;BME280;25696;42.646;23.368;2022-08-03T01:49:34;94520.94;;;19.83;62.37
39999;BME280;25696;42.646;23.368;2022-08-03T01:52:01;94519.66;;;19.59;62.10
39999;BME280;25696;42.646;23.368;2022-08-03T01:54:28;94506.56;;;19.61;63.21
39999;BME280;25696;42.646;23.368;2022-08-03T01:56:55;94517.59;;;19.71;62.44
39999;BME280;25696;42.646;23.368;2022-08-03T01:59:21;94509.91;;;19.68;62.85
39999;BME280;25696;42.646;23.368;2022-08-03T02:01:49;94516.22;;;19.74;62.11
39999;BME280;25696;42.646;23.368;2022-08-03T02:04:17;94520.13;;;19.83;62.12
39999;BME280;25696;42.646;23.368;2022-08-03T02:06:44;94522.59;;;19.84;62.14
39999;BME280;25696;42.646;23.368;2022-08-03T02:09:11;94523.69;;;19.88;61.97
39999;BME280;25696;42.646;23.368;2022-08-03T02:11:38;94516.88;;;19.86;62.34
39999;BME280;25696;42.646;23.368;2022-08-03T02:14:05;94522.13;;;19.97;62.27
39999;BME280;25696;42.646;23.368;2022-08-03T02:16:32;94522.75;;;20.04;61.87
39999;BME280;25696;42.646;23.368;2022-08-03T02:19:01;94516.97;;;20.01;61.99
39999;BME280;25696;42.646;23.368;2022-08-03T02:21:29;94516.59;;;19.87;62.56
39999;BME280;25696;42.646;23.368;2022-08-03T02:23:56;94513.75;;;19.72;63.04
39999;BME280;25696;42.646;23.368;2022-08-03T02:26:23;94514.75;;;19.61;63.45
39999;BME280;25696;42.646;23.368;2022-08-03T02:28:55;94515.56;;;19.62;63.74
39999;BME280;25696;42.646;23.368;2022-08-03T02:31:29;94510.09;;;19.57;64.02
39999;BME280;25696;42.646;23.368;2022-08-03T02:34:01;94515.16;;;19.43;64.36
39999;BME280;25696;42.646;23.368;2022-08-03T02:36:29;94518.16;;;19.47;64.34
39999;BME280;25696;42.646;23.368;2022-08-03T02:38:58;94521.94;;;19.14;64.56
39999;BME280;25696;42.646;23.368;2022-08-03T02:41:30;94520.50;;;19.06;64.73
39999;BME280;25696;42.646;23.368;2022-08-03T02:43:59;94518.69;;;19.17;64.72
39999;BME280;25696;42.646;23.368;2022-08-03T02:46:29;94512.38;;;19.38;64.16
39999;BME280;25696;42.646;23.368;2022-08-03T02:48:58;94516.56;;;19.24;64.50
39999;BME280;25696;42.646;23.368;2022-08-03T02:51:27;94525.50;;;19.14;64.87
39999;BME280;25696;42.646;23.368;2022-08-03T02:53:55;94515.31;;;19.05;65.13
39999;BME280;25696;42.646;23.368;2022-08-03T02:56:23;94525.13;;;18.79;66.33
39999;BME280;25696;42.646;23.368;2022-08-03T02:58:50;94522.31;;;18.74;66.58
39999;BME280;25696;42.646;23.368;2022-08-03T03:01:19;94533.69;;;18.88;66.30
39999;BME280;25696;42.646;23.368;2022-08-03T03:03:46;94510.34;;;19.02;66.07
39999;BME280;25696;42.646;23.368;2022-08-03T03:06:14;94529.16;;;19.25;65.72
39999;BME280;25696;42.646;23.368;2022-08-03T03:08:41;94525.03;;;18.96;66.08
39999;BME280;25696;42.646;23.368;2022-08-03T03:11:08;94539.97;;;18.67;67.45
39999;BME280;25696;42.646;23.368;2022-08-03T03:13:35;94537.34;;;18.33;68.63
39999;BME280;25696;42.646;23.368;2022-08-03T03:16:03;94532.38;;;18.30;68.89
39999;BME280;25696;42.646;23.368;2022-08-03T03:18:30;94548.31;;;18.38;68.61
39999;BME280;25696;42.646;23.368;2022-08-03T03:20:58;94531.22;;;18.26;68.95
39999;BME280;25696;42.646;23.368;2022-08-03T03:23:26;94550.31;;;18.65;68.14
39999;BME280;25696;42.646;23.368;2022-08-03T03:25:53;94540.47;;;18.85;67.13
39999;BME280;25696;42.646;23.368;2022-08-03T03:28:21;94546.88;;;18.96;66.79
39999;BME280;25696;42.646;23.368;2022-08-03T03:30:47;94545.84;;;19.02;66.27
39999;BME280;25696;42.646;23.368;2022-08-03T03:33:13;94558.56;;;18.70;67.04
39999;BME280;25696;42.646;23.368;2022-08-03T03:35:40;94564.03;;;18.70;67.12
39999;BME280;25696;42.646;23.368;2022-08-03T03:38:06;94559.28;;;19.08;66.40
39999;BME280;25696;42.646;23.368;2022-08-03T03:40:34;94552.22;;;19.12;66.63
39999;BME280;25696;42.646;23.368;2022-08-03T03:42:59;94552.13;;;19.29;66.10
39999;BME280;25696;42.646;23.368;2022-08-03T03:45:25;94557.72;;;19.39;66.12
39999;BME280;25696;42.646;23.368;2022-08-03T03:47:52;94548.84;;;19.27;66.53
39999;BME280;25696;42.646;23.368;2022-08-03T03:50:17;94556.66;;;19.40;66.23
39999;BME280;25696;42.646;23.368;2022-08-03T03:52:43;94561.94;;;19.30;65.06
39999;BME280;25696;42.646;23.368;2022-08-03T03:55:09;94563.81;;;19.46;66.03
39999;BME280;25696;42.646;23.368;2022-08-03T03:57:34;94570.84;;;19.69;65.08
39999;BME280;25696;42.646;23.368;2022-08-03T03:59:59;94555.09;;;19.81;64.73
39999;BME280;25696;42.646;23.368;2022-08-03T04:02:25;94561.97;;;19.88;64.66
39999;BME280;25696;42.646;23.368;2022-08-03T04:04:51;94562.84;;;19.94;64.13
39999;BME280;25696;42.646;23.368;2022-08-03T04:07:53;94559.63;;;20.02;64.34
39999;BME280;25696;42.646;23.368;2022-08-03T04:10:42;94559.97;;;20.11;63.72
39999;BME280;25696;42.646;23.368;2022-08-03T04:13:35;94562.63;;;20.00;63.80
39999;BME280;25696;42.646;23.368;2022-08-03T04:16:02;94567.03;;;20.07;63.48
39999;BME280;25696;42.646;23.368;2022-08-03T04:18:30;94569.50;;;20.08;63.34
39999;BME280;25696;42.646;23.368;2022-08-03T04:21:01;94556.44;;;20.15;62.95
39999;BME280;25696;42.646;23.368;2022-08-03T04:23:30;94563.25;;;20.13;62.88
39999;BME280;25696;42.646;23.368;2022-08-03T04:25:58;94563.19;;;20.02;63.08
39999;BME280;25696;42.646;23.368;2022-08-03T04:28:26;94565.53;;;20.21;63.42
39999;BME280;25696;42.646;23.368;2022-08-03T04:30:53;94557.44;;;20.36;63.66
39999;BME280;25696;42.646;23.368;2022-08-03T04:33:21;94549.88;;;20.58;63.29
39999;BME280;25696;42.646;23.368;2022-08-03T04:35:51;94563.97;;;20.87;61.83
39999;BME280;25696;42.646;23.368;2022-08-03T04:38:23;94566.28;;;21.10;61.53
39999;BME280;25696;42.646;23.368;2022-08-03T04:40:49;94572.09;;;21.38;60.67
39999;BME280;25696;42.646;23.368;2022-08-03T04:43:17;94571.63;;;21.77;59.53
39999;BME280;25696;42.646;23.368;2022-08-03T04:45:46;94565.34;;;22.11;58.36
39999;BME280;25696;42.646;23.368;2022-08-03T04:48:13;94581.69;;;23.56;54.50
39999;BME280;25696;42.646;23.368;2022-08-03T04:50:40;94581.50;;;25.72;47.84
39999;BME280;25696;42.646;23.368;2022-08-03T04:53:06;94577.06;;;26.91;44.61
39999;BME280;25696;42.646;23.368;2022-08-03T04:55:32;94586.31;;;28.39;41.21
39999;BME280;25696;42.646;23.368;2022-08-03T04:57:59;94576.66;;;28.81;39.55
39999;BME280;25696;42.646;23.368;2022-08-03T05:00:26;94575.00;;;30.24;37.53
39999;BME280;25696;42.646;23.368;2022-08-03T05:02:52;94589.00;;;31.13;34.92
39999;BME280;25696;42.646;23.368;2022-08-03T05:05:20;94586.78;;;30.21;36.07
39999;BME280;25696;42.646;23.368;2022-08-03T05:07:46;94580.06;;;30.13;35.42
39999;BME280;25696;42.646;23.368;2022-08-03T05:10:13;94589.75;;;29.59;36.64
39999;BME280;25696;42.646;23.368;2022-08-03T05:12:39;94598.31;;;29.80;36.86
39999;BME280;25696;42.646;23.368;2022-08-03T05:15:05;94607.84;;;31.07;34.31
39999;BME280;25696;42.646;23.368;2022-08-03T05:17:31;94604.22;;;31.61;33.87
39999;BME280;25696;42.646;23.368;2022-08-03T05:19:58;94596.66;;;32.70;31.42
39999;BME280;25696;42.646;23.368;2022-08-03T05:22:24;94601.00;;;32.59;32.02
39999;BME280;25696;42.646;23.368;2022-08-03T05:24:50;94609.03;;;31.44;33.64
39999;BME280;25696;42.646;23.368;2022-08-03T05:27:15;94609.28;;;31.68;33.71
39999;BME280;25696;42.646;23.368;2022-08-03T05:29:47;94619.66;;;30.96;35.03
39999;BME280;25696;42.646;23.368;2022-08-03T05:32:13;94613.16;;;29.75;36.48
39999;BME280;25696;42.646;23.368;2022-08-03T05:34:39;94617.75;;;28.79;38.88
39999;BME280;25696;42.646;23.368;2022-08-03T05:37:05;94613.06;;;30.23;36.88
39999;BME280;25696;42.646;23.368;2022-08-03T05:39:31;94623.91;;;30.67;36.11
39999;BME280;25696;42.646;23.368;2022-08-03T05:41:57;94625.94;;;31.77;34.64
39999;BME280;25696;42.646;23.368;2022-08-03T06:13:15;94621.00;;;29.73;37.27
39999;BME280;25696;42.646;23.368;2022-08-03T06:15:40;94635.72;;;29.43;37.55
39999;BME280;25696;42.646;23.368;2022-08-03T06:18:06;94642.81;;;28.74;38.94
39999;BME280;25696;42.646;23.368;2022-08-03T06:20:32;94633.00;;;28.32;39.90
39999;BME280;25696;42.646;23.368;2022-08-03T06:22:58;94632.38;;;27.86;41.13
39999;BME280;25696;42.646;23.368;2022-08-03T06:25:25;94614.72;;;27.96;40.90
39999;BME280;25696;42.646;23.368;2022-08-03T06:27:50;94629.75;;;28.52;40.17
39999;BME280;25696;42.646;23.368;2022-08-03T06:30:16;94636.00;;;28.58;39.75
39999;BME280;25696;42.646;23.368;2022-08-03T06:32:43;94633.28;;;29.42;38.09
39999;BME280;25696;42.646;23.368;2022-08-03T06:35:09;94620.66;;;30.31;37.36
39999;BME280;25696;42.646;23.368;2022-08-03T06:37:45;94630.66;;;31.38;35.10
39999;BME280;25696;42.646;23.368;2022-08-03T06:40:16;94631.81;;;32.63;33.25
39999;BME280;25696;42.646;23.368;2022-08-03T06:42:43;94636.63;;;32.95;32.39
39999;BME280;25696;42.646;23.368;2022-08-03T06:45:09;94637.72;;;33.02;32.14
39999;BME280;25696;42.646;23.368;2022-08-03T06:47:38;94630.25;;;33.39;31.68
39999;BME280;25696;42.646;23.368;2022-08-03T06:50:07;94623.72;;;33.35;31.43
39999;BME280;25696;42.646;23.368;2022-08-03T06:52:34;94630.09;;;33.68;30.52
39999;BME280;25696;42.646;23.368;2022-08-03T06:55:00;94624.28;;;33.97;30.47
39999;BME280;25696;42.646;23.368;2022-08-03T06:57:25;94625.38;;;33.48;31.28
39999;BME280;25696;42.646;23.368;2022-08-03T06:59:50;94620.16;;;32.40;32.79
39999;BME280;25696;42.646;23.368;2022-08-03T07:02:16;94621.41;;;32.72;32.17
39999;BME280;25696;42.646;23.368;2022-08-03T07:04:43;94618.34;;;33.18;31.61
39999;BME280;25696;42.646;23.368;2022-08-03T07:07:09;94616.75;;;33.41;31.14
39999;BME280;25696;42.646;23.368;2022-08-03T07:09:34;94622.44;;;33.65;30.99
39999;BME280;25696;42.646;23.368;2022-08-03T07:12:00;94621.03;;;33.71;30.66
39999;BME280;25696;42.646;23.368;2022-08-03T07:14:26;94625.47;;;33.84;30.47
39999;BME280;25696;42.646;23.368;2022-08-03T07:16:52;94623.22;;;33.21;31.50
39999;BME280;25696;42.646;23.368;2022-08-03T07:19:17;94628.13;;;33.24;31.66
39999;BME280;25696;42.646;23.368;2022-08-03T07:21:43;94624.97;;;33.13;31.64
39999;BME280;25696;42.646;23.368;2022-08-03T07:24:09;94627.22;;;33.32;31.58
39999;BME280;25696;42.646;23.368;2022-08-03T07:26:35;94629.31;;;33.47;30.70
39999;BME280;25696;42.646;23.368;2022-08-03T07:29:00;94629.03;;;32.95;31.57
39999;BME280;25696;42.646;23.368;2022-08-03T07:31:26;94623.47;;;32.33;32.86
39999;BME280;25696;42.646;23.368;2022-08-03T07:33:51;94616.22;;;31.91;33.28
39999;BME280;25696;42.646;23.368;2022-08-03T07:36:17;94627.16;;;31.96;33.45
39999;BME280;25696;42.646;23.368;2022-08-03T07:38:42;94624.78;;;31.78;33.58
39999;BME280;25696;42.646;23.368;2022-08-03T07:41:08;94635.88;;;31.86;33.37
39999;BME280;25696;42.646;23.368;2022-08-03T07:43:33;94631.81;;;31.75;33.95
39999;BME280;25696;42.646;23.368;2022-08-03T07:45:59;94640.75;;;31.60;33.74
39999;BME280;25696;42.646;23.368;2022-08-03T07:48:24;94627.41;;;31.45;33.75
39999;BME280;25696;42.646;23.368;2022-08-03T07:50:50;94632.84;;;31.24;34.10
39999;BME280;25696;42.646;23.368;2022-08-03T07:53:17;94632.59;;;30.91;34.95
39999;BME280;25696;42.646;23.368;2022-08-03T07:55:42;94629.28;;;31.07;35.00
39999;BME280;25696;42.646;23.368;2022-08-03T07:58:11;94638.94;;;31.01;34.65
39999;BME280;25696;42.646;23.368;2022-08-03T08:00:40;94633.78;;;31.37;34.21
39999;BME280;25696;42.646;23.368;2022-08-03T08:03:06;94634.03;;;30.80;34.61
39999;BME280;25696;42.646;23.368;2022-08-03T08:05:32;94624.72;;;30.76;34.28
39999;BME280;25696;42.646;23.368;2022-08-03T08:07:59;94630.91;;;31.08;33.38
39999;BME280;25696;42.646;23.368;2022-08-03T08:10:25;94633.13;;;31.31;33.45
39999;BME280;25696;42.646;23.368;2022-08-03T08:12:50;94631.19;;;31.23;33.09
39999;BME280;25696;42.646;23.368;2022-08-03T08:15:16;94637.22;;;31.42;33.45
39999;BME280;25696;42.646;23.368;2022-08-03T08:17:47;94636.72;;;31.49;33.56
39999;BME280;25696;42.646;23.368;2022-08-03T08:20:35;94640.38;;;31.70;32.73
39999;BME280;25696;42.646;23.368;2022-08-03T08:23:06;94629.47;;;31.86;32.46
39999;BME280;25696;42.646;23.368;2022-08-03T08:25:32;94631.56;;;32.06;32.16
39999;BME280;25696;42.646;23.368;2022-08-03T08:27:58;94632.41;;;32.47;31.42
39999;BME280;25696;42.646;23.368;2022-08-03T08:30:30;94632.38;;;32.27;31.50
39999;BME280;25696;42.646;23.368;2022-08-03T08:32:55;94637.16;;;32.26;31.86
39999;BME280;25696;42.646;23.368;2022-08-03T08:35:22;94632.09;;;32.20;31.83
39999;BME280;25696;42.646;23.368;2022-08-03T08:37:48;94623.81;;;32.11;31.17
39999;BME280;25696;42.646;23.368;2022-08-03T08:40:14;94631.25;;;31.99;31.93
39999;BME280;25696;42.646;23.368;2022-08-03T08:42:40;94624.38;;;31.96;31.44
39999;BME280;25696;42.646;23.368;2022-08-03T08:45:07;94629.06;;;32.04;32.05
39999;BME280;25696;42.646;23.368;2022-08-03T08:47:37;94620.63;;;32.42;31.98
39999;BME280;25696;42.646;23.368;2022-08-03T08:50:03;94630.75;;;32.88;31.10
39999;BME280;25696;42.646;23.368;2022-08-03T08:52:30;94624.88;;;33.22;30.27
39999;BME280;25696;42.646;23.368;2022-08-03T08:54:59;94613.63;;;32.98;31.07
39999;BME280;25696;42.646;23.368;2022-08-03T08:57:32;94607.31;;;32.89;30.81
39999;BME280;25696;42.646;23.368;2022-08-03T08:59:58;94619.56;;;32.76;30.40
39999;BME280;25696;42.646;23.368;2022-08-03T09:02:24;94613.34;;;32.91;29.59
39999;BME280;25696;42.646;23.368;2022-08-03T09:04:50;94619.84;;;33.15;29.78
39999;BME280;25696;42.646;23.368;2022-08-03T09:07:16;94617.53;;;33.17;29.70
39999;BME280;25696;42.646;23.368;2022-08-03T09:09:42;94605.69;;;33.33;29.02
39999;BME280;25696;42.646;23.368;2022-08-03T09:12:08;94608.72;;;33.84;28.99
39999;BME280;25696;42.646;23.368;2022-08-03T09:14:34;94615.91;;;33.85;28.55
39999;BME280;25696;42.646;23.368;2022-08-03T09:17:01;94617.97;;;33.52;28.53
39999;BME280;25696;42.646;23.368;2022-08-03T09:19:28;94610.50;;;33.44;28.75
39999;BME280;25696;42.646;23.368;2022-08-03T09:22:10;94613.81;;;33.70;28.93
39999;BME280;25696;42.646;23.368;2022-08-03T09:24:38;94612.72;;;34.47;28.50
39999;BME280;25696;42.646;23.368;2022-08-03T09:27:18;94610.22;;;34.82;26.81
39999;BME280;25696;42.646;23.368;2022-08-03T09:29:48;94608.94;;;35.07;27.13
39999;BME280;25696;42.646;23.368;2022-08-03T09:32:14;94601.06;;;35.40;26.86
39999;BME280;25696;42.646;23.368;2022-08-03T09:34:41;94607.53;;;35.88;25.96
39999;BME280;25696;42.646;23.368;2022-08-03T09:37:14;94611.06;;;35.85;26.00
39999;BME280;25696;42.646;23.368;2022-08-03T09:39:41;94600.75;;;35.89;25.75
39999;BME280;25696;42.646;23.368;2022-08-03T09:42:18;94598.25;;;35.99;26.14
39999;BME280;25696;42.646;23.368;2022-08-03T09:44:48;94599.56;;;36.71;24.83
39999;BME280;25696;42.646;23.368;2022-08-03T09:47:26;94607.16;;;37.70;23.86
39999;BME280;25696;42.646;23.368;2022-08-03T09:50:00;94610.84;;;37.74;23.39
39999;BME280;25696;42.646;23.368;2022-08-03T09:52:39;94610.22;;;38.82;22.14
39999;BME280;25696;42.646;23.368;2022-08-03T09:55:10;94613.75;;;39.38;21.64
39999;BME280;25696;42.646;23.368;2022-08-03T09:57:36;94594.03;;;40.11;20.61
39999;BME280;25696;42.646;23.368;2022-08-03T10:00:08;94609.19;;;40.44;20.69
39999;BME280;25696;42.646;23.368;2022-08-03T10:02:38;94609.75;;;40.63;20.41
39999;BME280;25696;42.646;23.368;2022-08-03T10:05:05;94607.28;;;41.27;20.04
39999;BME280;25696;42.646;23.368;2022-08-03T10:07:41;94598.84;;;41.30;19.55
39999;BME280;25696;42.646;23.368;2022-08-03T10:10:07;94591.75;;;42.10;18.70
39999;BME280;25696;42.646;23.368;2022-08-03T10:12:35;94598.91;;;43.13;18.12
39999;BME280;25696;42.646;23.368;2022-08-03T10:15:08;94587.25;;;44.42;17.51
39999;BME280;25696;42.646;23.368;2022-08-03T10:17:34;94577.94;;;42.93;18.07
39999;BME280;25696;42.646;23.368;2022-08-03T10:20:00;94590.63;;;39.95;20.57
39999;BME280;25696;42.646;23.368;2022-08-03T10:22:30;94579.50;;;37.95;22.43
39999;BME280;25696;42.646;23.368;2022-08-03T10:25:03;94575.81;;;36.34;24.16
39999;BME280;25696;42.646;23.368;2022-08-03T10:27:31;94577.69;;;36.80;24.11
39999;BME280;25696;42.646;23.368;2022-08-03T10:30:00;94571.69;;;36.63;23.94
39999;BME280;25696;42.646;23.368;2022-08-03T10:32:52;94568.47;;;34.49;26.11
39999;BME280;25696;42.646;23.368;2022-08-03T10:35:22;94580.34;;;32.93;27.94
39999;BME280;25696;42.646;23.368;2022-08-03T10:37:58;94570.28;;;32.47;28.76
39999;BME280;25696;42.646;23.368;2022-08-03T10:40:29;94556.47;;;31.80;29.36
39999;BME280;25696;42.646;23.368;2022-08-03T10:43:00;94568.22;;;31.56;29.70
39999;BME280;25696;42.646;23.368;2022-08-03T10:45:28;94563.31;;;31.16;30.92
39999;BME280;25696;42.646;23.368;2022-08-03T10:47:56;94554.75;;;31.21;30.76
39999;BME280;25696;42.646;23.368;2022-08-03T10:50:23;94558.03;;;31.60;30.92
39999;BME280;25696;42.646;23.368;2022-08-03T10:53:07;94559.97;;;31.68;30.74
39999;BME280;25696;42.646;23.368;2022-08-03T11:01:09;94561.88;;;31.10;31.35
39999;BME280;25696;42.646;23.368;2022-08-03T11:06:21;94552.34;;;31.11;30.96
39999;BME280;25696;42.646;23.368;2022-08-03T11:08:49;94553.88;;;31.37;31.51
39999;BME280;25696;42.646;23.368;2022-08-03T11:11:36;94553.88;;;31.46;31.47
39999;BME280;25696;42.646;23.368;2022-08-03T11:14:08;94547.34;;;31.42;31.33
39999;BME280;25696;42.646;23.368;2022-08-03T11:19:04;94547.22;;;31.30;31.07
39999;BME280;25696;42.646;23.368;2022-08-03T11:27:34;94533.03;;;30.42;32.52
39999;BME280;25696;42.646;23.368;2022-08-03T11:30:05;94528.13;;;29.79;33.19
39999;BME280;25696;42.646;23.368;2022-08-03T11:35:30;94528.59;;;30.58;33.13
39999;BME280;25696;42.646;23.368;2022-08-03T11:40:42;94529.34;;;31.02;31.49
39999;BME280;25696;42.646;23.368;2022-08-03T11:46:10;94514.47;;;30.98;31.87
39999;BME280;25696;42.646;23.368;2022-08-03T11:48:46;94511.81;;;31.39;31.08
39999;BME280;25696;42.646;23.368;2022-08-03T11:51:26;94517.47;;;31.80;31.15
39999;BME280;25696;42.646;23.368;2022-08-03T11:54:04;94513.81;;;31.88;31.00
39999;BME280;25696;42.646;23.368;2022-08-03T11:56:47;94513.81;;;31.88;31.39
39999;BME280;25696;42.646;23.368;2022-08-03T11:59:13;94513.06;;;31.79;30.75
39999;BME280;25696;42.646;23.368;2022-08-03T12:01:39;94504.81;;;31.33;31.07
39999;BME280;25696;42.646;23.368;2022-08-03T12:04:05;94509.66;;;31.07;31.68
39999;BME280;25696;42.646;23.368;2022-08-03T12:06:30;94506.16;;;31.27;31.49
39999;BME280;25696;42.646;23.368;2022-08-03T12:09:16;94506.75;;;31.03;32.44
39999;BME280;25696;42.646;23.368;2022-08-03T12:11:42;94499.44;;;30.90;32.70
39999;BME280;25696;42.646;23.368;2022-08-03T12:14:07;94508.22;;;30.37;33.09
39999;BME280;25696;42.646;23.368;2022-08-03T12:16:33;94503.94;;;30.14;33.69
39999;BME280;25696;42.646;23.368;2022-08-03T12:19:03;94498.22;;;30.36;32.95
39999;BME280;25696;42.646;23.368;2022-08-03T12:21:30;94501.63;;;30.50;32.85
39999;BME280;25696;42.646;23.368;2022-08-03T12:23:57;94499.63;;;30.68;33.06
39999;BME280;25696;42.646;23.368;2022-08-03T12:26:24;94494.53;;;30.96;32.45
39999;BME280;25696;42.646;23.368;2022-08-03T12:28:50;94495.84;;;30.81;32.32
39999;BME280;25696;42.646;23.368;2022-08-03T12:31:15;94504.94;;;30.18;33.32
39999;BME280;25696;42.646;23.368;2022-08-03T12:34:01;94498.38;;;30.48;32.42
39999;BME280;25696;42.646;23.368;2022-08-03T12:36:28;94496.75;;;30.47;32.43
39999;BME280;25696;42.646;23.368;2022-08-03T12:38:56;94488.22;;;30.52;32.88
39999;BME280;25696;42.646;23.368;2022-08-03T12:41:36;94493.44;;;30.62;32.47
39999;BME280;25696;42.646;23.368;2022-08-03T12:44:04;94489.31;;;30.77;32.14
39999;BME280;25696;42.646;23.368;2022-08-03T12:46:38;94493.56;;;30.74;32.24
39999;BME280;25696;42.646;23.368;2022-08-03T12:49:10;94490.59;;;30.88;31.89
39999;BME280;25696;42.646;23.368;2022-08-03T12:51:55;94491.19;;;31.02;32.03
39999;BME280;25696;42.646;23.368;2022-08-03T12:54:23;94488.41;;;31.02;32.61
39999;BME280;25696;42.646;23.368;2022-08-03T12:57:11;94490.63;;;31.17;31.12
39999;BME280;25696;42.646;23.368;2022-08-03T12:59:42;94483.09;;;31.55;30.74
39999;BME280;25696;42.646;23.368;2022-08-03T13:02:14;94480.69;;;31.75;31.11
39999;BME280;25696;42.646;23.368;2022-08-03T13:04:40;94476.31;;;32.27;32.08
39999;BME280;25696;42.646;23.368;2022-08-03T13:07:08;94470.06;;;32.51;30.13
39999;BME280;25696;42.646;23.368;2022-08-03T13:12:14;94468.91;;;31.69;31.32
39999;BME280;25696;42.646;23.368;2022-08-03T13:14:48;94458.09;;;30.71;32.47
39999;BME280;25696;42.646;23.368;2022-08-03T13:17:14;94462.78;;;30.88;32.17
39999;BME280;25696;42.646;23.368;2022-08-03T13:19:41;94470.22;;;30.58;32.72
39999;BME280;25696;42.646;23.368;2022-08-03T13:22:15;94467.03;;;30.05;33.29
39999;BME280;25696;42.646;23.368;2022-08-03T13:24:42;94462.94;;;30.19;33.38
39999;BME280;25696;42.646;23.368;2022-08-03T13:27:08;94467.03;;;30.13;33.51
39999;BME280;25696;42.646;23.368;2022-08-03T13:29:34;94463.13;;;29.80;34.38
39999;BME280;25696;42.646;23.368;2022-08-03T13:32:00;94480.69;;;28.94;36.91
39999;BME280;25696;42.646;23.368;2022-08-03T13:34:25;94478.66;;;28.24;39.21
39999;BME280;25696;42.646;23.368;2022-08-03T13:36:52;94509.22;;;27.61;40.95
39999;BME280;25696;42.646;23.368;2022-08-03T13:39:17;94491.16;;;27.28;41.68
39999;BME280;25696;42.646;23.368;2022-08-03T13:41:44;94488.38;;;27.28;41.98
39999;BME280;25696;42.646;23.368;2022-08-03T13:44:10;94472.72;;;27.37;41.91
39999;BME280;25696;42.646;23.368;2022-08-03T13:46:35;94487.84;;;27.53;41.46
39999;BME280;25696;42.646;23.368;2022-08-03T13:49:01;94489.00;;;27.52;41.36
39999;BME280;25696;42.646;23.368;2022-08-03T13:51:26;94474.50;;;27.06;42.50
39999;BME280;25696;42.646;23.368;2022-08-03T13:53:52;94480.81;;;27.20;42.75
39999;BME280;25696;42.646;23.368;2022-08-03T13:56:17;94481.66;;;27.21;42.43
39999;BME280;25696;42.646;23.368;2022-08-03T13:58:43;94475.91;;;27.44;42.39
39999;BME280;25696;42.646;23.368;2022-08-03T14:01:08;94484.47;;;27.56;41.51
39999;BME280;25696;42.646;23.368;2022-08-03T14:03:34;94486.16;;;28.02;39.81
39999;BME280;25696;42.646;23.368;2022-08-03T14:05:59;94479.81;;;28.01;39.89
39999;BME280;25696;42.646;23.368;2022-08-03T14:08:24;94482.88;;;28.44;39.45